sensor_id;sensor_type;location;lat;lon;timestamp;temperature;humidity
18593;DHT22;9426;54.118;17.948;2022-07-06T00:02:48;10.80;99.90
18593;DHT22;9426;54.118;17.948;2022-07-06T00:08:13;11.30;99.90
18593;DHT22;9426;54.118;17.948;2022-07-06T00:13:39;11.30;99.90
18593;DHT22;9426;54.118;17.948;2022-07-06T00:19:03;11.50;99.90
18593;DHT22;9426;54.118;17.948;2022-07-06T00:24:27;11.50;99.90
18593;DHT22;9426;54.118;17.948;2022-07-06T00:29:53;11.40;99.90
18593;DHT22;9426;54.118;17.948;2022-07-06T00:35:17;11.40;99.90
18593;DHT22;9426;54.118;17.948;2022-07-06T00:40:43;11.50;99.90
18593;DHT22;9426;54.118;17.948;2022-07-06T00:46:11;11.70;99.90
18593;DHT22;9426;54.118;17.948;2022-07-06T00:51:36;11.80;99.90
18593;DHT22;9426;54.118;17.948;2022-07-06T00:57:01;11.80;99.90
18593;DHT22;9426;54.118;17.948;2022-07-06T01:02:27;12.10;99.90
18593;DHT22;9426;54.118;17.948;2022-07-06T01:07:54;12.30;99.90
18593;DHT22;9426;54.118;17.948;2022-07-06T01:13:19;12.40;99.90
18593;DHT22;9426;54.118;17.948;2022-07-06T01:18:44;12.40;99.90
18593;DHT22;9426;54.118;17.948;2022-07-06T01:24:08;12.20;99.90
18593;DHT22;9426;54.118;17.948;2022-07-06T01:29:32;12.00;99.90
18593;DHT22;9426;54.118;17.948;2022-07-06T01:34:56;11.80;99.90
18593;DHT22;9426;54.118;17.948;2022-07-06T01:40:20;11.90;99.90
18593;DHT22;9426;54.118;17.948;2022-07-06T01:45:44;11.90;99.90
18593;DHT22;9426;54.118;17.948;2022-07-06T01:51:08;12.00;99.90
18593;DHT22;9426;54.118;17.948;2022-07-06T01:56:34;12.00;99.90
18593;DHT22;9426;54.118;17.948;2022-07-06T02:01:59;11.90;99.90
18593;DHT22;9426;54.118;17.948;2022-07-06T02:07:22;11.80;99.90
18593;DHT22;9426;54.118;17.948;2022-07-06T02:12:48;11.80;99.90
18593;DHT22;9426;54.118;17.948;2022-07-06T02:18:12;11.90;99.90
18593;DHT22;9426;54.118;17.948;2022-07-06T02:23:35;12.00;99.90
18593;DHT22;9426;54.118;17.948;2022-07-06T02:29:00;12.10;99.90
18593;DHT22;9426;54.118;17.948;2022-07-06T02:34:23;12.20;99.90
18593;DHT22;9426;54.118;17.948;2022-07-06T02:39:49;12.20;99.90
18593;DHT22;9426;54.118;17.948;2022-07-06T02:45:14;12.30;99.90
18593;DHT22;9426;54.118;17.948;2022-07-06T02:50:38;12.40;99.90
18593;DHT22;9426;54.118;17.948;2022-07-06T02:56:01;12.40;99.90
18593;DHT22;9426;54.118;17.948;2022-07-06T03:01:28;12.60;99.90
18593;DHT22;9426;54.118;17.948;2022-07-06T03:06:52;12.60;99.90
18593;DHT22;9426;54.118;17.948;2022-07-06T03:12:16;12.60;99.90
18593;DHT22;9426;54.118;17.948;2022-07-06T03:17:41;12.60;99.90
18593;DHT22;9426;54.118;17.948;2022-07-06T03:23:06;12.60;99.90
18593;DHT22;9426;54.118;17.948;2022-07-06T03:28:30;12.60;99.90
18593;DHT22;9426;54.118;17.948;2022-07-06T03:33:56;12.70;99.90
18593;DHT22;9426;54.118;17.948;2022-07-06T03:39:20;13.60;99.90
18593;DHT22;9426;54.118;17.948;2022-07-06T03:44:45;12.80;99.90
18593;DHT22;9426;54.118;17.948;2022-07-06T03:50:10;12.80;99.90
18593;DHT22;9426;54.118;17.948;2022-07-06T03:55:34;12.80;99.90
18593;DHT22;9426;54.118;17.948;2022-07-06T04:01:01;12.70;99.90
18593;DHT22;9426;54.118;17.948;2022-07-06T04:06:26;12.50;99.90
18593;DHT22;9426;54.118;17.948;2022-07-06T04:11:49;12.50;99.90
18593;DHT22;9426;54.118;17.948;2022-07-06T04:17:14;12.70;99.90
18593;DHT22;9426;54.118;17.948;2022-07-06T04:22:56;13.10;99.90
18593;DHT22;9426;54.118;17.948;2022-07-06T04:28:21;13.40;99.90
18593;DHT22;9426;54.118;17.948;2022-07-06T04:33:45;13.70;99.90
18593;DHT22;9426;54.118;17.948;2022-07-06T04:39:11;14.10;99.90
18593;DHT22;9426;54.118;17.948;2022-07-06T04:44:34;14.10;99.90
18593;DHT22;9426;54.118;17.948;2022-07-06T04:49:58;14.20;99.90
18593;DHT22;9426;54.118;17.948;2022-07-06T04:55:24;14.20;99.90
18593;DHT22;9426;54.118;17.948;2022-07-06T05:00:49;14.20;99.90
18593;DHT22;9426;54.118;17.948;2022-07-06T05:06:12;14.60;99.90
18593;DHT22;9426;54.118;17.948;2022-07-06T05:11:37;14.80;99.90
18593;DHT22;9426;54.118;17.948;2022-07-06T05:17:01;14.90;99.90
18593;DHT22;9426;54.118;17.948;2022-07-06T05:22:24;14.90;99.90
18593;DHT22;9426;54.118;17.948;2022-07-06T05:27:50;14.90;99.90
18593;DHT22;9426;54.118;17.948;2022-07-06T05:33:13;15.20;99.90
18593;DHT22;9426;54.118;17.948;2022-07-06T05:38:37;15.20;99.90
18593;DHT22;9426;54.118;17.948;2022-07-06T05:44:03;15.00;99.90
18593;DHT22;9426;54.118;17.948;2022-07-06T05:49:26;15.00;99.90
18593;DHT22;9426;54.118;17.948;2022-07-06T05:55:08;14.90;99.90
18593;DHT22;9426;54.118;17.948;2022-07-06T06:00:33;15.20;99.90
18593;DHT22;9426;54.118;17.948;2022-07-06T06:06:04;15.60;99.90
18593;DHT22;9426;54.118;17.948;2022-07-06T06:11:27;15.80;99.90
18593;DHT22;9426;54.118;17.948;2022-07-06T06:16:52;16.10;99.90
18593;DHT22;9426;54.118;17.948;2022-07-06T06:22:15;16.20;99.90
18593;DHT22;9426;54.118;17.948;2022-07-06T06:27:39;16.40;99.90
18593;DHT22;9426;54.118;17.948;2022-07-06T06:33:08;16.60;99.90
18593;DHT22;9426;54.118;17.948;2022-07-06T06:38:31;16.70;99.90
18593;DHT22;9426;54.118;17.948;2022-07-06T06:43:55;16.70;99.90
18593;DHT22;9426;54.118;17.948;2022-07-06T06:49:24;16.90;99.90
18593;DHT22;9426;54.118;17.948;2022-07-06T06:54:47;17.20;99.90
18593;DHT22;9426;54.118;17.948;2022-07-06T07:00:11;17.70;99.90
18593;DHT22;9426;54.118;17.948;2022-07-06T07:05:36;17.90;99.90
18593;DHT22;9426;54.118;17.948;2022-07-06T07:10:59;18.70;99.90
18593;DHT22;9426;54.118;17.948;2022-07-06T07:16:23;19.00;99.90
18593;DHT22;9426;54.118;17.948;2022-07-06T07:21:47;18.40;99.90
18593;DHT22;9426;54.118;17.948;2022-07-06T07:27:11;18.60;99.90
18593;DHT22;9426;54.118;17.948;2022-07-06T07:32:34;19.20;99.90
18593;DHT22;9426;54.118;17.948;2022-07-06T07:37:59;18.80;99.90
18593;DHT22;9426;54.118;17.948;2022-07-06T07:43:22;18.20;99.90
18593;DHT22;9426;54.118;17.948;2022-07-06T07:48:45;17.90;99.90
18593;DHT22;9426;54.118;17.948;2022-07-06T07:54:11;18.20;99.90
18593;DHT22;9426;54.118;17.948;2022-07-06T07:59:34;19.30;99.90
18593;DHT22;9426;54.118;17.948;2022-07-06T08:04:58;19.20;99.90
18593;DHT22;9426;54.118;17.948;2022-07-06T08:10:22;18.90;99.90
18593;DHT22;9426;54.118;17.948;2022-07-06T08:15:46;19.00;99.90
18593;DHT22;9426;54.118;17.948;2022-07-06T08:21:09;18.90;99.90
18593;DHT22;9426;54.118;17.948;2022-07-06T08:26:50;19.10;99.90
18593;DHT22;9426;54.118;17.948;2022-07-06T08:32:13;18.80;99.90
18593;DHT22;9426;54.118;17.948;2022-07-06T08:37:43;18.80;99.90
18593;DHT22;9426;54.118;17.948;2022-07-06T08:43:08;19.00;99.90
18593;DHT22;9426;54.118;17.948;2022-07-06T08:48:36;19.00;99.90
18593;DHT22;9426;54.118;17.948;2022-07-06T08:53:59;19.40;99.90
18593;DHT22;9426;54.118;17.948;2022-07-06T08:59:26;19.90;99.90
18593;DHT22;9426;54.118;17.948;2022-07-06T09:04:51;20.10;99.90
18593;DHT22;9426;54.118;17.948;2022-07-06T09:10:17;19.70;99.90
18593;DHT22;9426;54.118;17.948;2022-07-06T09:15:42;18.80;99.90
18593;DHT22;9426;54.118;17.948;2022-07-06T09:21:06;18.20;99.90
18593;DHT22;9426;54.118;17.948;2022-07-06T09:26:30;18.40;99.90
18593;DHT22;9426;54.118;17.948;2022-07-06T09:31:58;19.20;99.90
18593;DHT22;9426;54.118;17.948;2022-07-06T09:37:22;19.40;99.90
18593;DHT22;9426;54.118;17.948;2022-07-06T09:42:47;19.20;99.90
18593;DHT22;9426;54.118;17.948;2022-07-06T09:48:13;19.20;99.90
18593;DHT22;9426;54.118;17.948;2022-07-06T09:53:36;19.60;99.90
18593;DHT22;9426;54.118;17.948;2022-07-06T09:59:00;19.80;99.90
18593;DHT22;9426;54.118;17.948;2022-07-06T10:04:30;19.20;99.90
18593;DHT22;9426;54.118;17.948;2022-07-06T10:09:53;19.90;99.90
18593;DHT22;9426;54.118;17.948;2022-07-06T10:15:17;20.00;99.90
18593;DHT22;9426;54.118;17.948;2022-07-06T10:20:43;20.90;99.90
18593;DHT22;9426;54.118;17.948;2022-07-06T10:26:06;20.70;99.90
18593;DHT22;9426;54.118;17.948;2022-07-06T10:31:37;19.40;99.90
18593;DHT22;9426;54.118;17.948;2022-07-06T10:37:03;19.20;99.90
18593;DHT22;9426;54.118;17.948;2022-07-06T10:42:43;19.80;99.90
18593;DHT22;9426;54.118;17.948;2022-07-06T10:48:17;20.30;99.90
18593;DHT22;9426;54.118;17.948;2022-07-06T10:53:45;19.80;99.90
18593;DHT22;9426;54.118;17.948;2022-07-06T10:59:22;20.30;99.90
18593;DHT22;9426;54.118;17.948;2022-07-06T11:04:47;20.90;99.90
18593;DHT22;9426;54.118;17.948;2022-07-06T11:10:12;20.40;99.90
18593;DHT22;9426;54.118;17.948;2022-07-06T11:16:00;20.00;99.90
18593;DHT22;9426;54.118;17.948;2022-07-06T11:21:32;20.30;99.90
18593;DHT22;9426;54.118;17.948;2022-07-06T11:26:58;19.50;99.90
18593;DHT22;9426;54.118;17.948;2022-07-06T11:32:23;19.50;99.90
18593;DHT22;9426;54.118;17.948;2022-07-06T11:37:47;18.80;99.90
18593;DHT22;9426;54.118;17.948;2022-07-06T11:43:12;18.80;99.90
18593;DHT22;9426;54.118;17.948;2022-07-06T11:48:36;19.10;99.90
18593;DHT22;9426;54.118;17.948;2022-07-06T11:54:01;20.90;99.90
18593;DHT22;9426;54.118;17.948;2022-07-06T11:59:27;21.20;99.90
18593;DHT22;9426;54.118;17.948;2022-07-06T12:04:51;22.50;99.90
18593;DHT22;9426;54.118;17.948;2022-07-06T12:10:14;22.60;99.90
18593;DHT22;9426;54.118;17.948;2022-07-06T12:15:55;23.20;96.90
18593;DHT22;9426;54.118;17.948;2022-07-06T12:21:19;21.80;98.60
18593;DHT22;9426;54.118;17.948;2022-07-06T12:26:44;22.30;96.40
18593;DHT22;9426;54.118;17.948;2022-07-06T12:32:15;21.00;98.50
18593;DHT22;9426;54.118;17.948;2022-07-06T12:37:40;20.30;99.90
18593;DHT22;9426;54.118;17.948;2022-07-06T12:43:34;20.40;99.80
18593;DHT22;9426;54.118;17.948;2022-07-06T12:49:01;19.80;99.90
18593;DHT22;9426;54.118;17.948;2022-07-06T12:54:30;19.40;99.90
18593;DHT22;9426;54.118;17.948;2022-07-06T12:59:56;19.20;99.90
18593;DHT22;9426;54.118;17.948;2022-07-06T13:05:24;20.00;99.90
18593;DHT22;9426;54.118;17.948;2022-07-06T13:10:50;20.00;99.90
18593;DHT22;9426;54.118;17.948;2022-07-06T13:16:13;19.30;99.90
18593;DHT22;9426;54.118;17.948;2022-07-06T13:21:40;18.80;99.90
18593;DHT22;9426;54.118;17.948;2022-07-06T13:27:04;18.80;99.90
18593;DHT22;9426;54.118;17.948;2022-07-06T13:32:28;19.40;99.90
18593;DHT22;9426;54.118;17.948;2022-07-06T13:37:53;18.90;99.90
18593;DHT22;9426;54.118;17.948;2022-07-06T13:43:16;21.50;99.90
18593;DHT22;9426;54.118;17.948;2022-07-06T13:48:39;20.90;99.90
18593;DHT22;9426;54.118;17.948;2022-07-06T13:54:04;18.70;99.90
18593;DHT22;9426;54.118;17.948;2022-07-06T13:59:28;17.80;99.90
18593;DHT22;9426;54.118;17.948;2022-07-06T14:04:51;17.60;99.90
18593;DHT22;9426;54.118;17.948;2022-07-06T14:10:16;18.00;99.90
18593;DHT22;9426;54.118;17.948;2022-07-06T14:15:40;19.10;99.90
18593;DHT22;9426;54.118;17.948;2022-07-06T14:21:09;18.60;99.90
18593;DHT22;9426;54.118;17.948;2022-07-06T14:26:34;19.30;99.90
18593;DHT22;9426;54.118;17.948;2022-07-06T14:31:58;18.50;99.90
18593;DHT22;9426;54.118;17.948;2022-07-06T14:37:21;18.20;99.90
18593;DHT22;9426;54.118;17.948;2022-07-06T14:42:46;18.10;99.90
18593;DHT22;9426;54.118;17.948;2022-07-06T14:48:09;18.00;99.90
18593;DHT22;9426;54.118;17.948;2022-07-06T14:53:33;18.10;99.90
18593;DHT22;9426;54.118;17.948;2022-07-06T14:58:58;18.20;99.90
18593;DHT22;9426;54.118;17.948;2022-07-06T15:04:41;18.10;99.90
18593;DHT22;9426;54.118;17.948;2022-07-06T15:10:05;17.40;99.90
18593;DHT22;9426;54.118;17.948;2022-07-06T15:15:30;17.90;99.90
18593;DHT22;9426;54.118;17.948;2022-07-06T15:21:13;17.50;99.90
18593;DHT22;9426;54.118;17.948;2022-07-06T15:26:37;18.10;99.90
18593;DHT22;9426;54.118;17.948;2022-07-06T15:32:02;17.60;99.90
18593;DHT22;9426;54.118;17.948;2022-07-06T15:37:25;17.60;99.90
18593;DHT22;9426;54.118;17.948;2022-07-06T15:42:49;17.50;99.90
18593;DHT22;9426;54.118;17.948;2022-07-06T15:48:15;17.40;99.90
18593;DHT22;9426;54.118;17.948;2022-07-06T15:53:38;17.40;99.90
18593;DHT22;9426;54.118;17.948;2022-07-06T15:59:02;17.40;99.90
18593;DHT22;9426;54.118;17.948;2022-07-06T16:04:26;17.20;99.90
18593;DHT22;9426;54.118;17.948;2022-07-06T16:09:51;17.00;99.90
18593;DHT22;9426;54.118;17.948;2022-07-06T16:15:14;18.40;99.90
18593;DHT22;9426;54.118;17.948;2022-07-06T16:20:39;19.30;99.90
18593;DHT22;9426;54.118;17.948;2022-07-06T16:26:02;19.50;99.90
18593;DHT22;9426;54.118;17.948;2022-07-06T16:31:25;19.50;99.90
18593;DHT22;9426;54.118;17.948;2022-07-06T16:36:50;20.50;99.90
18593;DHT22;9426;54.118;17.948;2022-07-06T16:42:14;20.00;99.90
18593;DHT22;9426;54.118;17.948;2022-07-06T16:47:39;18.70;99.90
18593;DHT22;9426;54.118;17.948;2022-07-06T17:01:12;17.80;99.90
18593;DHT22;9426;54.118;17.948;2022-07-06T17:06:36;17.90;99.90
18593;DHT22;9426;54.118;17.948;2022-07-06T17:11:59;17.80;99.90
18593;DHT22;9426;54.118;17.948;2022-07-06T17:17:24;17.00;99.90
18593;DHT22;9426;54.118;17.948;2022-07-06T17:22:47;17.30;99.90
18593;DHT22;9426;54.118;17.948;2022-07-06T17:28:10;17.10;99.90
18593;DHT22;9426;54.118;17.948;2022-07-06T17:33:35;17.10;99.90
18593;DHT22;9426;54.118;17.948;2022-07-06T17:38:58;17.00;99.90
18593;DHT22;9426;54.118;17.948;2022-07-06T17:44:22;16.70;99.90
18593;DHT22;9426;54.118;17.948;2022-07-06T17:49:47;16.30;99.90
18593;DHT22;9426;54.118;17.948;2022-07-06T17:55:10;16.20;99.90
18593;DHT22;9426;54.118;17.948;2022-07-06T18:00:34;15.90;99.90
18593;DHT22;9426;54.118;17.948;2022-07-06T18:05:59;15.80;99.90
18593;DHT22;9426;54.118;17.948;2022-07-06T18:11:23;15.60;99.90
18593;DHT22;9426;54.118;17.948;2022-07-06T18:16:47;15.30;99.90
18593;DHT22;9426;54.118;17.948;2022-07-06T18:22:12;15.30;99.90
18593;DHT22;9426;54.118;17.948;2022-07-06T18:27:35;15.10;99.90
18593;DHT22;9426;54.118;17.948;2022-07-06T18:32:59;15.00;99.90
18593;DHT22;9426;54.118;17.948;2022-07-06T18:38:24;14.80;99.90
18593;DHT22;9426;54.118;17.948;2022-07-06T18:43:47;14.70;99.90
18593;DHT22;9426;54.118;17.948;2022-07-06T18:49:10;14.50;99.90
18593;DHT22;9426;54.118;17.948;2022-07-06T18:54:35;14.30;99.90
18593;DHT22;9426;54.118;17.948;2022-07-06T18:59:59;14.10;99.90
18593;DHT22;9426;54.118;17.948;2022-07-06T19:05:22;14.00;99.90
18593;DHT22;9426;54.118;17.948;2022-07-06T19:10:48;13.80;99.90
18593;DHT22;9426;54.118;17.948;2022-07-06T19:16:11;13.60;99.90
18593;DHT22;9426;54.118;17.948;2022-07-06T19:21:34;13.50;99.90
18593;DHT22;9426;54.118;17.948;2022-07-06T19:26:59;13.50;99.90
18593;DHT22;9426;54.118;17.948;2022-07-06T19:32:23;13.50;99.90
18593;DHT22;9426;54.118;17.948;2022-07-06T19:37:46;13.50;99.90
18593;DHT22;9426;54.118;17.948;2022-07-06T19:43:11;13.50;99.90
18593;DHT22;9426;54.118;17.948;2022-07-06T19:48:35;13.50;99.90
18593;DHT22;9426;54.118;17.948;2022-07-06T19:53:58;13.50;99.90
18593;DHT22;9426;54.118;17.948;2022-07-06T19:59:23;13.50;99.90
18593;DHT22;9426;54.118;17.948;2022-07-06T20:04:47;13.50;99.90
18593;DHT22;9426;54.118;17.948;2022-07-06T20:10:11;13.50;99.90
18593;DHT22;9426;54.118;17.948;2022-07-06T20:15:35;13.50;99.90
18593;DHT22;9426;54.118;17.948;2022-07-06T20:20:59;13.60;99.90
18593;DHT22;9426;54.118;17.948;2022-07-06T20:26:22;13.60;99.90
18593;DHT22;9426;54.118;17.948;2022-07-06T20:31:47;13.60;99.90
18593;DHT22;9426;54.118;17.948;2022-07-06T20:37:10;13.70;99.90
18593;DHT22;9426;54.118;17.948;2022-07-06T20:42:34;13.70;99.90
18593;DHT22;9426;54.118;17.948;2022-07-06T20:47:59;13.70;99.90
18593;DHT22;9426;54.118;17.948;2022-07-06T20:53:23;13.80;99.90
18593;DHT22;9426;54.118;17.948;2022-07-06T20:58:46;13.80;99.90
18593;DHT22;9426;54.118;17.948;2022-07-06T21:04:31;13.70;99.90
18593;DHT22;9426;54.118;17.948;2022-07-06T21:09:54;13.70;99.90
18593;DHT22;9426;54.118;17.948;2022-07-06T21:15:18;13.80;99.90
18593;DHT22;9426;54.118;17.948;2022-07-06T21:20:43;13.80;99.90
18593;DHT22;9426;54.118;17.948;2022-07-06T21:26:06;13.70;99.90
18593;DHT22;9426;54.118;17.948;2022-07-06T21:31:30;13.70;99.90
18593;DHT22;9426;54.118;17.948;2022-07-06T21:36:55;13.60;99.90
18593;DHT22;9426;54.118;17.948;2022-07-06T21:42:18;13.50;99.90
18593;DHT22;9426;54.118;17.948;2022-07-06T21:47:43;13.30;99.90
18593;DHT22;9426;54.118;17.948;2022-07-06T21:53:08;13.20;99.90
18593;DHT22;9426;54.118;17.948;2022-07-06T21:58:33;13.20;99.90
18593;DHT22;9426;54.118;17.948;2022-07-06T22:03:56;13.20;99.90
18593;DHT22;9426;54.118;17.948;2022-07-06T22:09:47;13.20;99.90
18593;DHT22;9426;54.118;17.948;2022-07-06T22:15:11;13.20;99.90
18593;DHT22;9426;54.118;17.948;2022-07-06T22:20:34;13.20;99.90
18593;DHT22;9426;54.118;17.948;2022-07-06T22:25:59;13.20;99.90
18593;DHT22;9426;54.118;17.948;2022-07-06T22:31:22;12.70;99.90
18593;DHT22;9426;54.118;17.948;2022-07-06T22:36:46;13.20;99.90
18593;DHT22;9426;54.118;17.948;2022-07-06T22:42:11;13.20;99.90
18593;DHT22;9426;54.118;17.948;2022-07-06T22:47:34;13.30;99.90
18593;DHT22;9426;54.118;17.948;2022-07-06T22:52:58;13.30;99.90
18593;DHT22;9426;54.118;17.948;2022-07-06T22:58:23;13.20;99.90
18593;DHT22;9426;54.118;17.948;2022-07-06T23:03:48;13.20;99.90
18593;DHT22;9426;54.118;17.948;2022-07-06T23:09:12;13.20;99.90
18593;DHT22;9426;54.118;17.948;2022-07-06T23:14:37;13.10;99.90
18593;DHT22;9426;54.118;17.948;2022-07-06T23:20:00;13.20;99.90
18593;DHT22;9426;54.118;17.948;2022-07-06T23:25:24;13.20;99.90
18593;DHT22;9426;54.118;17.948;2022-07-06T23:30:49;13.20;99.90
18593;DHT22;9426;54.118;17.948;2022-07-06T23:36:12;13.20;99.90
18593;DHT22;9426;54.118;17.948;2022-07-06T23:41:36;13.20;99.90
18593;DHT22;9426;54.118;17.948;2022-07-06T23:47:01;13.20;99.90
18593;DHT22;9426;54.118;17.948;2022-07-06T23:52:24;13.20;99.90
18593;DHT22;9426;54.118;17.948;2022-07-06T23:57:47;13.20;99.90
